Devers, Texas
Current Conditions -  °F | °C
As of 4:35 PM on Monday 20 Oct 2014 (Local Time) from KBMT Reporting Station
Clear Clear  
Wind Chill: 80°   Ceiling: Unl
Heat Index: 80°   Visibility: 10mi
Dew Point: 55°   Wind: 7mph
Humidity: 42%   Direction: 360°N
Pressure: 29.99"   Gusts: NA
Location:  30.03°N, 94.59°W
Report Text: KBMT 202135Z AUTO 36006KT 10SM CLR 26/13 A2999 RMK AO2 T02640125
Loading
Personal Weather Stations






























Interactive Weather Map New forecast layout! Learn more

10-Day Weather Forecast

Advertisements
Track Severe Weather on mobile